createdAt,value
2018-09-20T00:00:38.074Z,68.56
2018-09-20T00:03:05.743Z,69.67
2018-09-20T00:05:33.451Z,68.56
2018-09-20T00:08:01.098Z,68.43
2018-09-20T00:10:28.773Z,68.54
2018-09-20T00:12:56.483Z,68.48
2018-09-20T00:15:24.149Z,68.72
2018-09-20T00:17:51.819Z,68.62
2018-09-20T00:20:19.530Z,68.80
2018-09-20T00:22:47.283Z,68.69
2018-09-20T00:25:14.943Z,68.12
2018-09-20T00:27:42.652Z,68.48
2018-09-20T00:30:10.332Z,68.45
2018-09-20T00:32:38.014Z,68.97
2018-09-20T00:35:05.843Z,68.92
2018-09-20T00:37:33.513Z,69.48
2018-09-20T00:40:01.173Z,68.55
2018-09-20T00:42:28.937Z,68.68
2018-09-20T00:44:56.601Z,68.63
2018-09-20T00:47:24.286Z,68.64
2018-09-20T00:49:52.014Z,68.65
2018-09-20T00:52:19.678Z,67.96
2018-09-20T00:54:47.340Z,69.41
2018-09-20T00:57:15.029Z,69.10
2018-09-20T00:59:42.681Z,70.10
2018-09-20T01:02:10.377Z,70.03
2018-09-20T01:04:38.079Z,69.11
2018-09-20T01:07:05.787Z,69.60
2018-09-20T01:09:33.443Z,69.53
2018-09-20T01:12:01.143Z,69.64
2018-09-20T01:14:28.810Z,70.07
2018-09-20T01:16:56.494Z,71.39
2018-09-20T01:19:24.225Z,71.03
2018-09-20T01:21:52.355Z,71.16
2018-09-20T01:24:20.017Z,71.53
2018-09-20T01:26:47.721Z,71.42
2018-09-20T01:29:15.391Z,71.50
2018-09-20T01:31:43.073Z,72.48
2018-09-20T01:34:10.774Z,72.66
2018-09-20T01:36:38.473Z,72.78
2018-09-20T01:39:09.909Z,72.00
2018-09-20T01:41:37.687Z,72.44
2018-09-20T01:44:05.357Z,71.72
2018-09-20T01:46:33.012Z,71.93
2018-09-20T01:49:00.713Z,71.60
2018-09-20T01:51:28.397Z,71.62
2018-09-20T01:53:56.043Z,72.17
2018-09-20T01:56:23.741Z,71.48
2018-09-20T01:58:51.398Z,71.65
2018-09-20T02:01:19.082Z,70.68
2018-09-20T02:03:46.778Z,71.03
2018-09-20T02:06:14.441Z,70.35
2018-09-20T02:08:42.100Z,71.25
2018-09-20T02:11:09.803Z,71.13
2018-09-20T02:13:37.474Z,72.07
2018-09-20T02:16:05.471Z,72.27
2018-09-20T02:18:33.190Z,72.55
2018-09-20T02:21:00.864Z,73.35
2018-09-20T02:23:28.522Z,73.44
2018-09-20T02:25:56.278Z,73.99
2018-09-20T02:28:23.941Z,74.27
2018-09-20T02:30:51.607Z,73.70
2018-09-20T02:33:19.309Z,73.15
2018-09-20T02:35:47.028Z,73.00
2018-09-20T02:38:14.666Z,73.42
2018-09-20T02:40:42.357Z,73.41
2018-09-20T02:43:10.184Z,73.02
2018-09-20T02:45:37.833Z,72.84
2018-09-20T02:48:05.526Z,72.27
2018-09-20T02:50:33.201Z,72.08
2018-09-20T02:53:00.906Z,71.86
2018-09-20T02:55:28.613Z,71.82
2018-09-20T02:57:56.347Z,72.39
2018-09-20T03:00:24.007Z,72.37
2018-09-20T03:02:51.735Z,73.46
2018-09-20T03:05:19.414Z,73.46
2018-09-20T03:07:47.058Z,73.18
2018-09-20T03:10:14.758Z,73.44
2018-09-20T03:12:42.418Z,74.06
2018-09-20T03:15:10.074Z,73.73
2018-09-20T03:17:37.753Z,74.62
2018-09-20T03:20:05.516Z,74.05
2018-09-20T03:22:33.182Z,74.09
2018-09-20T03:25:00.865Z,74.73
2018-09-20T03:27:28.550Z,75.43
2018-09-20T03:29:56.215Z,75.74
2018-09-20T03:32:23.919Z,76.37
2018-09-20T03:34:51.578Z,75.49
2018-09-20T03:37:19.238Z,75.97
2018-09-20T03:39:46.962Z,75.82
2018-09-20T03:42:14.680Z,76.58
2018-09-20T03:44:42.464Z,75.96
2018-09-20T03:47:10.124Z,75.00
2018-09-20T03:49:37.785Z,75.05
2018-09-20T03:52:05.510Z,74.71
2018-09-20T03:54:33.197Z,75.22
2018-09-20T03:57:00.859Z,75.58
2018-09-20T03:59:28.534Z,75.75
2018-09-20T04:01:56.238Z,76.35
2018-09-20T04:04:23.908Z,76.70
2018-09-20T04:06:51.634Z,77.03
2018-09-20T04:09:19.354Z,76.94
2018-09-20T04:11:47.030Z,76.54
2018-09-20T04:14:14.724Z,75.22
2018-09-20T04:16:42.443Z,76.35
2018-09-20T04:19:10.094Z,75.91
2018-09-20T04:21:37.737Z,76.37
2018-09-20T04:24:06.730Z,76.20
2018-09-20T04:26:34.410Z,75.97
2018-09-20T04:29:02.225Z,73.29
2018-09-20T04:31:30.490Z,67.78
2018-09-20T04:33:59.448Z,67.48
2018-09-20T04:36:27.128Z,69.39
2018-09-20T04:38:54.833Z,69.91
2018-09-20T04:41:22.482Z,68.93
2018-09-20T04:43:50.198Z,60.62
2018-09-20T04:46:17.974Z,53.67
2018-09-20T04:48:45.651Z,50.18
2018-09-20T04:51:13.322Z,45.95
2018-09-20T04:53:41.033Z,44.61
2018-09-20T04:56:08.723Z,44.97
2018-09-20T04:58:36.381Z,45.31
2018-09-20T05:01:04.138Z,43.93
2018-09-20T05:03:31.793Z,42.34
2018-09-20T05:05:59.466Z,41.19
2018-09-20T05:08:27.154Z,42.31
2018-09-20T05:10:54.803Z,40.73
2018-09-20T05:13:22.471Z,39.43
2018-09-20T05:15:50.175Z,37.92
2018-09-20T05:18:17.834Z,37.35
2018-09-20T05:20:45.503Z,36.84
2018-09-20T05:23:13.247Z,34.99
2018-09-20T05:25:40.911Z,35.69
2018-09-20T05:28:08.845Z,37.27
2018-09-20T05:30:36.544Z,36.25
2018-09-20T05:33:04.226Z,36.21
2018-09-20T05:35:31.924Z,36.20
2018-09-20T05:37:59.631Z,35.13
2018-09-20T05:40:27.269Z,36.49
2018-09-20T05:42:54.929Z,39.96
2018-09-20T05:45:22.634Z,40.79
2018-09-20T05:47:50.277Z,39.12
2018-09-20T05:50:18.022Z,37.31
2018-09-20T05:52:45.722Z,37.38
2018-09-20T05:55:13.607Z,36.26
2018-09-20T05:57:41.271Z,39.77
2018-09-20T06:00:09.170Z,48.00
2018-09-20T06:02:36.914Z,50.12
2018-09-20T06:05:04.871Z,51.12
2018-09-20T06:07:32.576Z,49.72
2018-09-20T06:10:00.398Z,49.39
2018-09-20T06:12:28.061Z,50.90
2018-09-20T06:14:55.770Z,50.13
2018-09-20T06:17:23.894Z,48.63
2018-09-20T06:19:51.567Z,49.40
2018-09-20T06:22:19.291Z,52.27
2018-09-20T06:24:46.973Z,55.42
2018-09-20T06:27:14.645Z,56.62
2018-09-20T06:29:42.359Z,55.74
2018-09-20T06:32:10.024Z,53.55
2018-09-20T06:34:41.298Z,51.25
2018-09-20T06:37:09.050Z,50.39
2018-09-20T06:39:36.735Z,54.36
2018-09-20T06:42:04.427Z,57.58
2018-09-20T06:44:32.150Z,57.10
2018-09-20T06:46:59.817Z,56.60
2018-09-20T06:49:27.595Z,55.75
2018-09-20T06:51:55.304Z,53.24
2018-09-20T06:54:22.995Z,51.14
2018-09-20T06:56:50.683Z,53.47
2018-09-20T06:59:18.418Z,53.01
2018-09-20T07:01:46.062Z,53.02
2018-09-20T07:04:13.746Z,52.62
2018-09-20T07:06:41.497Z,53.69
2018-09-20T07:09:11.022Z,54.38
2018-09-20T07:11:38.760Z,54.45
2018-09-20T07:14:06.497Z,55.32
2018-09-20T07:16:34.186Z,55.18
2018-09-20T07:19:01.961Z,54.56
2018-09-20T07:21:29.718Z,51.88
2018-09-20T07:23:57.426Z,51.98
2018-09-20T07:26:25.134Z,51.64
2018-09-20T07:28:52.851Z,50.20
2018-09-20T07:31:20.515Z,49.45
2018-09-20T07:33:48.237Z,47.71
2018-09-20T07:36:15.979Z,48.43
2018-09-20T07:38:43.639Z,49.71
2018-09-20T07:41:11.411Z,51.35
2018-09-20T07:43:39.199Z,48.67
2018-09-20T07:46:06.917Z,49.19
2018-09-20T07:48:34.590Z,49.86
2018-09-20T07:51:02.456Z,49.32
2018-09-20T07:53:30.146Z,49.23
2018-09-20T07:55:57.822Z,48.41
2018-09-20T07:58:25.551Z,48.76
2018-09-20T08:00:53.213Z,47.01
2018-09-20T08:03:20.919Z,47.94
2018-09-20T08:05:48.654Z,47.36
2018-09-20T08:08:16.342Z,47.23
2018-09-20T08:10:44.087Z,46.63
2018-09-20T08:13:11.826Z,43.81
2018-09-20T08:15:39.563Z,43.08
2018-09-20T08:18:07.335Z,46.13
2018-09-20T08:20:35.038Z,46.47
2018-09-20T08:23:02.698Z,45.64
2018-09-20T08:25:30.421Z,46.02
2018-09-20T08:27:58.200Z,45.63
2018-09-20T08:30:25.911Z,44.06
2018-09-20T08:32:53.570Z,43.62
2018-09-20T08:35:21.278Z,43.03
2018-09-20T08:37:48.991Z,42.03
2018-09-20T08:40:16.958Z,40.82
2018-09-20T08:42:44.691Z,40.75
2018-09-20T08:45:12.375Z,41.82
2018-09-20T08:47:40.066Z,40.43
2018-09-20T08:50:07.846Z,37.91
2018-09-20T08:52:35.627Z,38.30
2018-09-20T08:55:03.387Z,38.93
2018-09-20T08:57:36.737Z,39.44
2018-09-20T09:00:04.503Z,40.83
2018-09-20T09:02:32.175Z,38.71
2018-09-20T09:04:59.882Z,38.26
2018-09-20T09:07:27.551Z,38.73
2018-09-20T09:09:55.222Z,38.54
2018-09-20T09:12:22.932Z,39.48
2018-09-20T09:14:50.595Z,40.78
2018-09-20T09:17:18.238Z,39.76
2018-09-20T09:19:45.944Z,38.16
2018-09-20T09:22:13.641Z,38.12
2018-09-20T09:24:41.344Z,40.57
2018-09-20T09:27:09.049Z,39.79
2018-09-20T09:29:36.715Z,37.42
2018-09-20T09:32:04.420Z,36.82
2018-09-20T09:34:32.144Z,37.04
2018-09-20T09:36:59.790Z,36.20
2018-09-20T09:39:27.453Z,35.46
2018-09-20T09:41:55.138Z,34.46
2018-09-20T09:44:22.846Z,32.58
2018-09-20T09:46:50.783Z,31.42
2018-09-20T09:49:18.488Z,31.53
2018-09-20T09:51:46.145Z,32.41
2018-09-20T09:54:14.016Z,30.64
2018-09-20T09:56:41.711Z,30.81
2018-09-20T09:59:09.400Z,31.60
2018-09-20T10:01:37.081Z,29.61
2018-09-20T10:04:04.779Z,30.00
2018-09-20T10:06:32.461Z,30.71
2018-09-20T10:09:00.128Z,29.62
2018-09-20T10:11:27.897Z,29.38
2018-09-20T10:13:55.655Z,30.30
2018-09-20T10:16:23.293Z,31.84
2018-09-20T10:18:51.101Z,29.76
2018-09-20T10:21:18.812Z,30.54
2018-09-20T10:23:46.499Z,30.79
2018-09-20T10:26:14.218Z,31.42
2018-09-20T10:28:41.887Z,31.30
2018-09-20T10:31:09.599Z,29.88
2018-09-20T10:33:37.342Z,28.03
2018-09-20T10:36:05.125Z,29.47
2018-09-20T10:38:32.866Z,28.03
2018-09-20T10:41:00.776Z,28.51
2018-09-20T10:43:28.430Z,28.38
2018-09-20T10:45:56.098Z,28.65
2018-09-20T10:48:23.817Z,25.98
2018-09-20T10:50:51.501Z,24.74
2018-09-20T10:53:19.396Z,26.37
2018-09-20T10:55:47.187Z,25.46
2018-09-20T10:58:14.914Z,27.53
2018-09-20T11:00:42.592Z,28.37
2018-09-20T11:03:10.418Z,26.94
2018-09-20T11:05:38.087Z,23.64
2018-09-20T11:08:05.801Z,23.66
2018-09-20T11:10:33.577Z,22.62
2018-09-20T11:13:01.200Z,23.29
2018-09-20T11:15:28.865Z,24.37
2018-09-20T11:17:56.605Z,23.08
2018-09-20T11:20:24.317Z,23.72
2018-09-20T11:22:51.994Z,22.73
2018-09-20T11:25:19.738Z,21.84
2018-09-20T11:27:47.410Z,20.67
2018-09-20T11:30:15.193Z,19.85
2018-09-20T11:32:42.998Z,20.25
2018-09-20T11:35:10.741Z,21.39
2018-09-20T11:37:38.492Z,20.95
2018-09-20T11:40:06.330Z,20.13
2018-09-20T11:42:34.023Z,20.72
2018-09-20T11:45:01.753Z,20.96
2018-09-20T11:47:29.501Z,20.65
2018-09-20T11:49:57.242Z,21.02
2018-09-20T11:52:24.997Z,20.95
2018-09-20T11:54:52.769Z,19.91
2018-09-20T11:57:20.689Z,19.06
2018-09-20T11:59:48.477Z,18.87
2018-09-20T12:02:16.202Z,17.76
2018-09-20T12:04:43.889Z,17.84
2018-09-20T12:07:11.610Z,17.59
2018-09-20T12:09:39.349Z,18.23
2018-09-20T12:12:07.067Z,17.67
2018-09-20T12:14:34.835Z,17.38
2018-09-20T12:17:02.525Z,17.12
2018-09-20T12:19:30.274Z,16.21
2018-09-20T12:21:58.034Z,17.05
2018-09-20T12:24:25.775Z,16.41
2018-09-20T12:26:53.516Z,15.57
2018-09-20T12:29:21.239Z,15.25
2018-09-20T12:31:49.078Z,14.42
2018-09-20T12:34:16.853Z,14.80
2018-09-20T12:36:44.634Z,15.46
2018-09-20T12:39:13.811Z,15.42
2018-09-20T12:41:41.938Z,15.74
2018-09-20T12:44:09.985Z,17.74
2018-09-20T12:46:37.770Z,19.54
2018-09-20T12:49:05.626Z,19.53
2018-09-20T12:51:33.981Z,20.20
2018-09-20T12:54:01.790Z,20.70
2018-09-20T12:56:29.619Z,21.91
2018-09-20T12:58:57.341Z,22.34
2018-09-20T13:01:25.099Z,21.68
2018-09-20T13:03:52.834Z,22.41
2018-09-20T13:06:20.611Z,21.77
2018-09-20T13:08:48.362Z,22.69
2018-09-20T13:11:16.174Z,21.46
2018-09-20T13:13:43.930Z,23.45
2018-09-20T13:16:11.703Z,23.08
2018-09-20T13:18:39.422Z,22.36
2018-09-20T13:21:07.362Z,22.56
2018-09-20T13:23:35.170Z,22.85
2018-09-20T13:26:02.926Z,23.25
2018-09-20T13:28:30.633Z,22.27
2018-09-20T13:30:58.398Z,21.94
2018-09-20T13:33:26.086Z,22.63
2018-09-20T13:35:53.826Z,22.51
2018-09-20T13:38:21.612Z,23.27
2018-09-20T13:40:49.379Z,23.68
2018-09-20T13:43:17.221Z,24.22
2018-09-20T13:45:45.013Z,23.75
2018-09-20T13:48:12.671Z,23.15
2018-09-20T13:50:40.394Z,23.08
2018-09-20T13:53:08.130Z,21.94
2018-09-20T13:55:35.818Z,21.23
2018-09-20T13:58:03.594Z,20.82
2018-09-20T14:00:31.276Z,20.97
2018-09-20T14:02:59.020Z,21.07
2018-09-20T14:05:26.771Z,22.36
2018-09-20T14:07:54.555Z,22.43
2018-09-20T14:10:22.302Z,22.37
2018-09-20T14:12:50.010Z,22.78
2018-09-20T14:15:17.781Z,23.61
2018-09-20T14:17:45.506Z,22.77
2018-09-20T14:20:13.271Z,22.89
2018-09-20T14:22:41.065Z,23.72
2018-09-20T14:25:08.538Z,23.83
2018-09-20T14:27:36.216Z,23.15
2018-09-20T14:30:04.035Z,23.75
2018-09-20T14:32:31.822Z,24.71
2018-09-20T14:34:59.537Z,24.73
2018-09-20T14:37:27.309Z,24.47
2018-09-20T14:39:55.070Z,24.62
2018-09-20T14:42:22.797Z,24.51
2018-09-20T14:44:50.601Z,24.04
2018-09-20T14:47:18.370Z,23.91
2018-09-20T14:49:46.090Z,24.62
2018-09-20T14:52:13.845Z,25.07
2018-09-20T14:54:41.593Z,24.60
2018-09-20T14:57:09.342Z,24.30
2018-09-20T14:59:37.117Z,23.85
2018-09-20T15:02:04.886Z,24.57
2018-09-20T15:04:32.574Z,24.36
2018-09-20T15:07:00.313Z,24.10
2018-09-20T15:09:28.018Z,23.92
2018-09-20T15:11:55.729Z,23.79
2018-09-20T15:14:23.513Z,24.49
2018-09-20T15:16:51.221Z,24.76
2018-09-20T15:19:18.946Z,25.53
2018-09-20T15:21:46.737Z,26.17
2018-09-20T15:24:14.438Z,25.10
2018-09-20T15:26:42.170Z,25.56
2018-09-20T15:29:09.981Z,24.99
2018-09-20T15:31:37.720Z,25.55
2018-09-20T15:34:05.493Z,25.58
2018-09-20T15:36:33.369Z,26.44
2018-09-20T15:39:01.064Z,26.23
2018-09-20T15:41:28.858Z,26.87
2018-09-20T15:43:56.618Z,28.48
2018-09-20T15:46:24.331Z,30.71
2018-09-20T15:48:52.065Z,31.77
2018-09-20T15:51:20.741Z,32.48
2018-09-20T15:53:48.466Z,34.19
2018-09-20T15:56:16.181Z,34.45
2018-09-20T15:58:43.958Z,34.46
2018-09-20T16:01:12.405Z,35.39
2018-09-20T16:03:40.247Z,35.46
2018-09-20T16:06:08.026Z,36.95
2018-09-20T16:08:35.734Z,37.08
2018-09-20T16:11:03.505Z,37.43
2018-09-20T16:13:31.219Z,37.77
2018-09-20T16:15:58.938Z,38.67
2018-09-20T16:18:26.710Z,38.75
2018-09-20T16:20:54.445Z,38.97
2018-09-20T16:23:22.234Z,40.05
2018-09-20T16:25:49.903Z,40.77
2018-09-20T16:28:37.451Z,41.26
2018-09-20T16:31:18.929Z,41.61
2018-09-20T16:34:05.421Z,42.13
2018-09-20T16:36:45.949Z,42.07
2018-09-20T16:39:19.301Z,42.40
2018-09-20T16:41:49.913Z,43.96
2018-09-20T16:44:17.633Z,44.10
2018-09-20T16:46:45.451Z,44.30
2018-09-20T16:49:13.117Z,44.14
2018-09-20T16:51:40.781Z,43.80
2018-09-20T16:54:08.517Z,43.91
2018-09-20T16:56:36.226Z,43.96
2018-09-20T16:59:03.993Z,43.59
2018-09-20T17:01:31.777Z,43.55
2018-09-20T17:03:59.524Z,43.85
2018-09-20T17:06:27.222Z,44.29
2018-09-20T17:08:54.958Z,45.01
2018-09-20T17:11:23.643Z,45.14
2018-09-20T17:13:51.310Z,45.71
2018-09-20T17:16:19.132Z,45.51
2018-09-20T17:18:46.786Z,45.89
2018-09-20T17:21:14.591Z,44.62
2018-09-20T17:23:42.573Z,45.76
2018-09-20T17:26:10.233Z,45.45
2018-09-20T17:28:37.926Z,45.55
2018-09-20T17:31:05.645Z,45.48
2018-09-20T17:33:33.379Z,45.42
2018-09-20T17:36:01.284Z,45.35
2018-09-20T17:38:30.016Z,46.75
2018-09-20T17:41:01.714Z,46.81
2018-09-20T17:43:33.849Z,46.45
2018-09-20T17:46:01.521Z,46.20
2018-09-20T17:48:29.244Z,46.05
2018-09-20T17:50:57.342Z,46.29
2018-09-20T17:53:26.416Z,46.11
2018-09-20T17:55:55.515Z,46.88
2018-09-20T17:58:23.716Z,46.93
2018-09-20T18:00:51.395Z,47.09
2018-09-20T18:03:19.112Z,48.03
2018-09-20T18:05:46.870Z,47.24
2018-09-20T18:08:14.554Z,47.18
2018-09-20T18:10:42.287Z,47.76
2018-09-20T18:13:09.992Z,48.64
2018-09-20T18:15:37.686Z,48.36
2018-09-20T18:18:05.480Z,48.99
2018-09-20T18:20:33.181Z,48.77
2018-09-20T18:23:00.910Z,49.80
2018-09-20T18:25:28.616Z,50.51
2018-09-20T18:27:56.643Z,50.85
2018-09-20T18:30:24.323Z,51.05
2018-09-20T18:32:52.003Z,51.20
2018-09-20T18:35:19.819Z,50.65
2018-09-20T18:37:47.610Z,51.30
2018-09-20T18:40:15.353Z,51.23
2018-09-20T18:42:43.256Z,51.54
2018-09-20T18:45:10.838Z,50.97
2018-09-20T18:48:09.807Z,51.42
2018-09-20T18:50:37.477Z,51.09
2018-09-20T18:53:05.215Z,51.18
2018-09-20T18:55:33.009Z,50.73
2018-09-20T18:58:00.624Z,51.41
2018-09-20T19:00:28.270Z,51.40
2018-09-20T19:02:55.973Z,51.65
2018-09-20T19:05:23.678Z,51.28
2018-09-20T19:07:51.374Z,51.46
2018-09-20T19:10:19.092Z,51.49
2018-09-20T19:12:46.775Z,51.20
2018-09-20T19:15:14.481Z,50.03
2018-09-20T19:17:42.218Z,49.37
2018-09-20T19:20:09.885Z,49.04
2018-09-20T19:22:37.611Z,49.13
2018-09-20T19:25:05.737Z,48.12
2018-09-20T19:27:33.426Z,48.69
2018-09-20T19:30:01.132Z,49.32
2018-09-20T19:32:28.859Z,48.87
2018-09-20T19:34:56.517Z,49.84
2018-09-20T19:37:24.222Z,50.20
2018-09-20T19:39:51.973Z,50.02
2018-09-20T19:42:25.612Z,49.54
2018-09-20T19:44:53.339Z,50.55
2018-09-20T19:47:20.992Z,50.37
2018-09-20T19:49:48.675Z,49.85
2018-09-20T19:52:16.496Z,50.41
2018-09-20T19:54:44.171Z,51.47
2018-09-20T19:57:11.844Z,51.12
2018-09-20T19:59:39.762Z,52.49
2018-09-20T20:02:07.442Z,53.01
2018-09-20T20:04:35.249Z,52.52
2018-09-20T20:07:03.058Z,53.50
2018-09-20T20:09:30.754Z,52.85
2018-09-20T20:11:58.499Z,52.79
2018-09-20T20:14:26.267Z,53.53
2018-09-20T20:16:54.027Z,53.94
2018-09-20T20:19:21.838Z,53.86
2018-09-20T20:21:49.682Z,54.55
2018-09-20T20:24:17.397Z,54.10
2018-09-20T20:26:45.125Z,54.20
2018-09-20T20:29:12.889Z,54.04
2018-09-20T20:31:40.661Z,53.78
2018-09-20T20:34:08.350Z,54.51
2018-09-20T20:36:36.119Z,54.87
2018-09-20T20:39:05.802Z,54.71
2018-09-20T20:41:33.489Z,54.52
2018-09-20T20:44:01.235Z,54.72
2018-09-20T20:46:28.973Z,53.67
2018-09-20T20:48:56.670Z,55.04
2018-09-20T20:51:24.542Z,55.48
2018-09-20T20:53:52.282Z,55.75
2018-09-20T20:56:20.026Z,56.29
2018-09-20T20:58:47.826Z,55.56
2018-09-20T21:01:18.411Z,57.29
2018-09-20T21:03:46.334Z,55.03
2018-09-20T21:06:14.297Z,55.36
2018-09-20T21:08:42.127Z,54.76
2018-09-20T21:11:09.857Z,55.03
2018-09-20T21:13:37.684Z,55.69
2018-09-20T21:16:05.418Z,55.03
2018-09-20T21:18:33.153Z,55.64
2018-09-20T21:21:00.950Z,55.92
2018-09-20T21:23:28.650Z,55.79
2018-09-20T21:25:56.527Z,56.58
2018-09-20T21:28:24.312Z,56.72
2018-09-20T21:30:52.030Z,57.45
2018-09-20T21:33:19.815Z,56.82
2018-09-20T21:35:47.519Z,57.39
2018-09-20T21:38:15.203Z,57.07
2018-09-20T21:40:42.877Z,57.08
2018-09-20T21:43:10.683Z,56.98
2018-09-20T21:45:38.401Z,58.61
2018-09-20T21:48:06.446Z,57.50
2018-09-20T21:50:34.210Z,57.73
2018-09-20T21:53:01.925Z,57.08
2018-09-20T21:55:29.653Z,56.64
2018-09-20T21:57:57.374Z,57.31
2018-09-20T22:00:25.139Z,56.85
2018-09-20T22:02:58.514Z,56.55
2018-09-20T22:05:26.209Z,55.31
2018-09-20T22:07:53.879Z,55.00
2018-09-20T22:10:21.682Z,54.89
2018-09-20T22:12:49.377Z,54.48
2018-09-20T22:15:21.890Z,54.75
2018-09-20T22:17:49.575Z,53.96
2018-09-20T22:20:17.357Z,53.61
2018-09-20T22:22:45.317Z,54.07
2018-09-20T22:25:13.268Z,54.00
2018-09-20T22:27:41.013Z,53.42
2018-09-20T22:30:08.829Z,53.74
2018-09-20T22:32:36.598Z,53.42
2018-09-20T22:35:04.623Z,53.21
2018-09-20T22:37:32.323Z,53.95
2018-09-20T22:39:59.978Z,54.56
2018-09-20T22:42:27.906Z,55.13
2018-09-20T22:44:55.657Z,54.74
2018-09-20T22:47:23.316Z,55.48
2018-09-20T22:49:51.053Z,54.99
2018-09-20T22:52:18.749Z,55.34
2018-09-20T22:54:46.402Z,56.87
2018-09-20T22:57:14.281Z,56.20
2018-09-20T22:59:42.960Z,56.51
2018-09-20T23:02:10.713Z,56.36
2018-09-20T23:04:38.370Z,56.07
2018-09-20T23:07:06.265Z,56.88
2018-09-20T23:09:33.918Z,57.69
2018-09-20T23:12:01.659Z,57.39
2018-09-20T23:14:29.377Z,57.33
2018-09-20T23:16:57.150Z,58.44
2018-09-20T23:19:24.822Z,58.02
2018-09-20T23:21:52.581Z,58.54
2018-09-20T23:24:20.246Z,58.66
2018-09-20T23:26:47.921Z,57.99
2018-09-20T23:29:15.667Z,58.41
2018-09-20T23:31:43.337Z,58.21
2018-09-20T23:34:11.035Z,58.47
2018-09-20T23:36:38.751Z,58.27
2018-09-20T23:39:08.834Z,58.63
2018-09-20T23:41:36.585Z,58.92
2018-09-20T23:44:04.421Z,59.39
2018-09-20T23:46:32.094Z,59.68
2018-09-20T23:48:59.778Z,60.09
2018-09-20T23:51:27.482Z,59.49
2018-09-20T23:53:55.297Z,60.51
2018-09-20T23:56:23.010Z,60.43
2018-09-20T23:58:50.729Z,59.72
